sensor_id;sensor_type;location;lat;lon;timestamp;P1;durP1;ratioP1;P2;durP2;ratioP2
24857;SDS011;12935;50.782;6.074;2022-10-26T00:02:13;106.10;;;84.93;;
24857;SDS011;12935;50.782;6.074;2022-10-26T00:04:38;104.03;;;84.60;;
24857;SDS011;12935;50.782;6.074;2022-10-26T00:07:04;82.23;;;74.60;;
24857;SDS011;12935;50.782;6.074;2022-10-26T00:09:29;100.00;;;84.13;;
24857;SDS011;12935;50.782;6.074;2022-10-26T00:11:54;107.67;;;86.90;;
24857;SDS011;12935;50.782;6.074;2022-10-26T00:14:20;98.00;;;83.70;;
24857;SDS011;12935;50.782;6.074;2022-10-26T00:16:45;97.20;;;82.63;;
24857;SDS011;12935;50.782;6.074;2022-10-26T00:19:10;100.00;;;84.33;;
24857;SDS011;12935;50.782;6.074;2022-10-26T00:21:35;91.10;;;80.07;;
24857;SDS011;12935;50.782;6.074;2022-10-26T00:24:01;96.90;;;81.57;;
24857;SDS011;12935;50.782;6.074;2022-10-26T00:26:26;90.23;;;78.80;;
24857;SDS011;12935;50.782;6.074;2022-10-26T00:28:52;96.83;;;79.50;;
24857;SDS011;12935;50.782;6.074;2022-10-26T00:31:18;95.67;;;78.87;;
24857;SDS011;12935;50.782;6.074;2022-10-26T00:33:44;91.83;;;77.90;;
24857;SDS011;12935;50.782;6.074;2022-10-26T00:36:10;99.93;;;83.13;;
24857;SDS011;12935;50.782;6.074;2022-10-26T00:38:37;95.13;;;83.67;;
24857;SDS011;12935;50.782;6.074;2022-10-26T00:41:10;99.43;;;81.80;;
24857;SDS011;12935;50.782;6.074;2022-10-26T00:43:40;117.63;;;83.97;;
24857;SDS011;12935;50.782;6.074;2022-10-26T00:46:11;88.27;;;77.00;;
24857;SDS011;12935;50.782;6.074;2022-10-26T00:48:41;121.37;;;85.33;;
24857;SDS011;12935;50.782;6.074;2022-10-26T00:51:14;90.53;;;78.13;;
24857;SDS011;12935;50.782;6.074;2022-10-26T00:53:44;117.13;;;85.80;;
24857;SDS011;12935;50.782;6.074;2022-10-26T00:56:10;96.47;;;81.27;;
24857;SDS011;12935;50.782;6.074;2022-10-26T00:58:35;104.13;;;81.43;;
24857;SDS011;12935;50.782;6.074;2022-10-26T01:01:02;119.90;;;84.73;;
24857;SDS011;12935;50.782;6.074;2022-10-26T01:03:27;93.80;;;79.47;;
24857;SDS011;12935;50.782;6.074;2022-10-26T01:05:55;91.83;;;77.17;;
24857;SDS011;12935;50.782;6.074;2022-10-26T01:08:22;98.33;;;80.43;;
24857;SDS011;12935;50.782;6.074;2022-10-26T01:10:47;115.17;;;82.67;;
24857;SDS011;12935;50.782;6.074;2022-10-26T01:13:13;98.23;;;78.63;;
24857;SDS011;12935;50.782;6.074;2022-10-26T01:15:44;85.70;;;75.77;;
24857;SDS011;12935;50.782;6.074;2022-10-26T01:18:18;88.97;;;77.67;;
24857;SDS011;12935;50.782;6.074;2022-10-26T01:24:01;119.10;;;85.27;;
24857;SDS011;12935;50.782;6.074;2022-10-26T01:32:03;94.60;;;78.30;;
24857;SDS011;12935;50.782;6.074;2022-10-26T01:34:35;101.87;;;80.97;;
24857;SDS011;12935;50.782;6.074;2022-10-26T01:37:12;82.87;;;74.17;;
24857;SDS011;12935;50.782;6.074;2022-10-26T01:39:47;96.97;;;79.53;;
24857;SDS011;12935;50.782;6.074;2022-10-26T01:42:17;108.90;;;83.10;;
24857;SDS011;12935;50.782;6.074;2022-10-26T01:44:48;86.37;;;75.90;;
24857;SDS011;12935;50.782;6.074;2022-10-26T01:47:18;89.17;;;77.40;;
24857;SDS011;12935;50.782;6.074;2022-10-26T01:49:49;90.43;;;76.97;;
24857;SDS011;12935;50.782;6.074;2022-10-26T01:52:18;108.33;;;82.27;;
24857;SDS011;12935;50.782;6.074;2022-10-26T01:54:43;83.83;;;75.63;;
24857;SDS011;12935;50.782;6.074;2022-10-26T01:57:10;100.60;;;80.40;;
24857;SDS011;12935;50.782;6.074;2022-10-26T02:13:07;105.67;;;83.97;;
24857;SDS011;12935;50.782;6.074;2022-10-26T02:15:46;88.80;;;75.97;;
24857;SDS011;12935;50.782;6.074;2022-10-26T02:21:21;87.57;;;77.13;;
24857;SDS011;12935;50.782;6.074;2022-10-26T02:23:50;94.33;;;77.13;;
24857;SDS011;12935;50.782;6.074;2022-10-26T02:26:21;87.13;;;76.73;;
24857;SDS011;12935;50.782;6.074;2022-10-26T02:28:50;84.90;;;75.57;;
24857;SDS011;12935;50.782;6.074;2022-10-26T02:31:20;84.40;;;75.20;;
24857;SDS011;12935;50.782;6.074;2022-10-26T02:33:48;98.70;;;79.47;;
24857;SDS011;12935;50.782;6.074;2022-10-26T02:36:17;100.93;;;80.23;;
24857;SDS011;12935;50.782;6.074;2022-10-26T02:38:47;94.67;;;76.90;;
24857;SDS011;12935;50.782;6.074;2022-10-26T02:41:15;106.60;;;80.33;;
24857;SDS011;12935;50.782;6.074;2022-10-26T02:43:44;107.17;;;81.50;;
24857;SDS011;12935;50.782;6.074;2022-10-26T02:46:17;96.13;;;78.43;;
24857;SDS011;12935;50.782;6.074;2022-10-26T02:48:46;99.00;;;80.83;;
24857;SDS011;12935;50.782;6.074;2022-10-26T02:54:14;100.10;;;80.77;;
24857;SDS011;12935;50.782;6.074;2022-10-26T02:56:54;96.37;;;78.50;;
24857;SDS011;12935;50.782;6.074;2022-10-26T02:59:27;81.77;;;73.40;;
24857;SDS011;12935;50.782;6.074;2022-10-26T03:01:56;94.73;;;80.00;;
24857;SDS011;12935;50.782;6.074;2022-10-26T03:04:29;103.53;;;81.20;;
24857;SDS011;12935;50.782;6.074;2022-10-26T03:06:55;94.67;;;79.33;;
24857;SDS011;12935;50.782;6.074;2022-10-26T03:09:21;99.23;;;78.83;;
24857;SDS011;12935;50.782;6.074;2022-10-26T03:11:46;96.40;;;80.43;;
24857;SDS011;12935;50.782;6.074;2022-10-26T03:14:12;101.03;;;81.93;;
24857;SDS011;12935;50.782;6.074;2022-10-26T03:16:37;95.37;;;78.33;;
24857;SDS011;12935;50.782;6.074;2022-10-26T03:19:02;100.23;;;80.37;;
24857;SDS011;12935;50.782;6.074;2022-10-26T03:21:27;87.57;;;78.13;;
24857;SDS011;12935;50.782;6.074;2022-10-26T03:23:53;100.90;;;81.40;;
24857;SDS011;12935;50.782;6.074;2022-10-26T03:26:18;87.80;;;77.93;;
24857;SDS011;12935;50.782;6.074;2022-10-26T03:28:44;123.07;;;83.33;;
24857;SDS011;12935;50.782;6.074;2022-10-26T03:31:09;95.93;;;81.63;;
24857;SDS011;12935;50.782;6.074;2022-10-26T03:33:34;106.93;;;83.70;;
24857;SDS011;12935;50.782;6.074;2022-10-26T03:36:00;90.53;;;78.87;;
24857;SDS011;12935;50.782;6.074;2022-10-26T03:38:25;96.23;;;79.77;;
24857;SDS011;12935;50.782;6.074;2022-10-26T03:40:50;101.23;;;80.87;;
24857;SDS011;12935;50.782;6.074;2022-10-26T03:43:16;92.90;;;78.37;;
24857;SDS011;12935;50.782;6.074;2022-10-26T03:45:41;94.17;;;79.63;;
24857;SDS011;12935;50.782;6.074;2022-10-26T03:48:06;91.13;;;79.30;;
24857;SDS011;12935;50.782;6.074;2022-10-26T03:50:31;105.10;;;84.87;;
24857;SDS011;12935;50.782;6.074;2022-10-26T03:52:57;101.23;;;82.20;;
24857;SDS011;12935;50.782;6.074;2022-10-26T03:55:22;109.63;;;81.00;;
24857;SDS011;12935;50.782;6.074;2022-10-26T03:57:47;91.73;;;78.80;;
24857;SDS011;12935;50.782;6.074;2022-10-26T04:00:13;100.27;;;84.13;;
24857;SDS011;12935;50.782;6.074;2022-10-26T04:02:44;93.07;;;80.33;;
24857;SDS011;12935;50.782;6.074;2022-10-26T04:05:15;112.50;;;85.20;;
24857;SDS011;12935;50.782;6.074;2022-10-26T04:07:40;96.60;;;80.70;;
24857;SDS011;12935;50.782;6.074;2022-10-26T04:10:06;96.43;;;82.33;;
24857;SDS011;12935;50.782;6.074;2022-10-26T04:12:34;94.43;;;81.07;;
24857;SDS011;12935;50.782;6.074;2022-10-26T04:15:01;113.53;;;83.40;;
24857;SDS011;12935;50.782;6.074;2022-10-26T04:17:26;91.43;;;81.43;;
24857;SDS011;12935;50.782;6.074;2022-10-26T04:19:52;99.43;;;82.97;;
24857;SDS011;12935;50.782;6.074;2022-10-26T04:22:17;110.50;;;85.67;;
24857;SDS011;12935;50.782;6.074;2022-10-26T04:24:43;92.63;;;81.10;;
24857;SDS011;12935;50.782;6.074;2022-10-26T04:27:08;90.80;;;80.87;;
24857;SDS011;12935;50.782;6.074;2022-10-26T04:29:33;99.50;;;82.07;;
24857;SDS011;12935;50.782;6.074;2022-10-26T04:31:59;100.40;;;84.17;;
24857;SDS011;12935;50.782;6.074;2022-10-26T04:34:24;95.50;;;82.43;;
24857;SDS011;12935;50.782;6.074;2022-10-26T04:36:49;90.47;;;79.90;;
24857;SDS011;12935;50.782;6.074;2022-10-26T04:39:14;107.03;;;85.10;;
24857;SDS011;12935;50.782;6.074;2022-10-26T04:41:40;91.93;;;80.53;;
24857;SDS011;12935;50.782;6.074;2022-10-26T04:44:05;104.47;;;85.87;;
24857;SDS011;12935;50.782;6.074;2022-10-26T04:46:30;107.20;;;84.97;;
24857;SDS011;12935;50.782;6.074;2022-10-26T04:48:55;93.97;;;80.57;;
24857;SDS011;12935;50.782;6.074;2022-10-26T04:51:21;105.80;;;82.50;;
24857;SDS011;12935;50.782;6.074;2022-10-26T04:53:46;98.13;;;83.53;;
24857;SDS011;12935;50.782;6.074;2022-10-26T04:56:11;97.97;;;81.13;;
24857;SDS011;12935;50.782;6.074;2022-10-26T04:58:37;98.53;;;82.40;;
24857;SDS011;12935;50.782;6.074;2022-10-26T05:01:02;108.77;;;81.93;;
24857;SDS011;12935;50.782;6.074;2022-10-26T05:03:27;95.90;;;82.47;;
24857;SDS011;12935;50.782;6.074;2022-10-26T05:05:53;109.63;;;84.30;;
24857;SDS011;12935;50.782;6.074;2022-10-26T05:08:18;109.30;;;84.83;;
24857;SDS011;12935;50.782;6.074;2022-10-26T05:10:47;91.77;;;80.10;;
24857;SDS011;12935;50.782;6.074;2022-10-26T05:13:13;102.80;;;81.47;;
24857;SDS011;12935;50.782;6.074;2022-10-26T05:15:39;118.13;;;87.17;;
24857;SDS011;12935;50.782;6.074;2022-10-26T05:18:04;115.57;;;87.10;;
24857;SDS011;12935;50.782;6.074;2022-10-26T05:20:31;110.37;;;87.50;;
24857;SDS011;12935;50.782;6.074;2022-10-26T05:22:58;107.40;;;82.73;;
24857;SDS011;12935;50.782;6.074;2022-10-26T05:25:25;115.97;;;87.30;;
24857;SDS011;12935;50.782;6.074;2022-10-26T05:27:55;103.37;;;84.43;;
24857;SDS011;12935;50.782;6.074;2022-10-26T05:30:31;90.83;;;80.40;;
24857;SDS011;12935;50.782;6.074;2022-10-26T05:32:58;105.77;;;85.13;;
24857;SDS011;12935;50.782;6.074;2022-10-26T05:35:25;102.80;;;80.70;;
24857;SDS011;12935;50.782;6.074;2022-10-26T05:37:51;97.30;;;80.27;;
24857;SDS011;12935;50.782;6.074;2022-10-26T05:40:16;108.83;;;87.47;;
24857;SDS011;12935;50.782;6.074;2022-10-26T05:42:42;98.77;;;81.60;;
24857;SDS011;12935;50.782;6.074;2022-10-26T05:45:08;106.83;;;82.70;;
24857;SDS011;12935;50.782;6.074;2022-10-26T05:47:38;96.40;;;81.67;;
24857;SDS011;12935;50.782;6.074;2022-10-26T05:50:04;90.27;;;80.50;;
24857;SDS011;12935;50.782;6.074;2022-10-26T05:52:29;110.33;;;86.93;;
24857;SDS011;12935;50.782;6.074;2022-10-26T05:54:55;111.60;;;84.40;;
24857;SDS011;12935;50.782;6.074;2022-10-26T05:57:20;99.73;;;82.17;;
24857;SDS011;12935;50.782;6.074;2022-10-26T05:59:45;95.40;;;82.70;;
24857;SDS011;12935;50.782;6.074;2022-10-26T06:02:18;103.77;;;85.77;;
24857;SDS011;12935;50.782;6.074;2022-10-26T06:05:06;101.53;;;85.83;;
24857;SDS011;12935;50.782;6.074;2022-10-26T06:07:35;94.77;;;82.00;;
24857;SDS011;12935;50.782;6.074;2022-10-26T06:10:01;107.20;;;85.03;;
24857;SDS011;12935;50.782;6.074;2022-10-26T06:12:26;129.63;;;92.77;;
24857;SDS011;12935;50.782;6.074;2022-10-26T06:14:52;104.90;;;84.70;;
24857;SDS011;12935;50.782;6.074;2022-10-26T06:25:36;126.43;;;92.73;;
24857;SDS011;12935;50.782;6.074;2022-10-26T06:31:04;106.57;;;87.30;;
24857;SDS011;12935;50.782;6.074;2022-10-26T06:33:29;117.60;;;89.53;;
24857;SDS011;12935;50.782;6.074;2022-10-26T06:35:57;103.03;;;83.70;;
24857;SDS011;12935;50.782;6.074;2022-10-26T06:38:34;100.90;;;84.00;;
24857;SDS011;12935;50.782;6.074;2022-10-26T06:41:01;99.83;;;84.20;;
24857;SDS011;12935;50.782;6.074;2022-10-26T06:43:31;108.30;;;84.87;;
24857;SDS011;12935;50.782;6.074;2022-10-26T06:46:02;131.93;;;92.10;;
24857;SDS011;12935;50.782;6.074;2022-10-26T06:48:32;100.77;;;83.60;;
24857;SDS011;12935;50.782;6.074;2022-10-26T06:51:06;113.23;;;86.00;;
24857;SDS011;12935;50.782;6.074;2022-10-26T06:53:59;109.27;;;89.57;;
24857;SDS011;12935;50.782;6.074;2022-10-26T06:56:36;105.43;;;85.33;;
24857;SDS011;12935;50.782;6.074;2022-10-26T06:59:11;98.23;;;82.30;;
24857;SDS011;12935;50.782;6.074;2022-10-26T07:01:45;103.57;;;87.37;;
24857;SDS011;12935;50.782;6.074;2022-10-26T07:04:11;95.53;;;83.97;;
24857;SDS011;12935;50.782;6.074;2022-10-26T07:06:36;115.30;;;88.37;;
24857;SDS011;12935;50.782;6.074;2022-10-26T07:09:01;107.90;;;86.97;;
24857;SDS011;12935;50.782;6.074;2022-10-26T07:11:26;104.43;;;87.00;;
24857;SDS011;12935;50.782;6.074;2022-10-26T07:13:52;107.90;;;88.03;;
24857;SDS011;12935;50.782;6.074;2022-10-26T07:16:17;116.13;;;89.30;;
24857;SDS011;12935;50.782;6.074;2022-10-26T07:18:42;103.13;;;85.33;;
24857;SDS011;12935;50.782;6.074;2022-10-26T07:21:08;105.73;;;89.10;;
24857;SDS011;12935;50.782;6.074;2022-10-26T07:23:34;111.67;;;89.13;;
24857;SDS011;12935;50.782;6.074;2022-10-26T07:25:59;117.27;;;92.60;;
24857;SDS011;12935;50.782;6.074;2022-10-26T07:28:24;102.87;;;85.30;;
24857;SDS011;12935;50.782;6.074;2022-10-26T07:30:50;100.67;;;85.50;;
24857;SDS011;12935;50.782;6.074;2022-10-26T07:33:15;101.77;;;86.90;;
24857;SDS011;12935;50.782;6.074;2022-10-26T07:35:40;118.70;;;90.47;;
24857;SDS011;12935;50.782;6.074;2022-10-26T07:38:06;106.57;;;89.70;;
24857;SDS011;12935;50.782;6.074;2022-10-26T07:40:31;98.17;;;87.60;;
24857;SDS011;12935;50.782;6.074;2022-10-26T07:42:57;126.40;;;95.37;;
24857;SDS011;12935;50.782;6.074;2022-10-26T07:45:24;99.60;;;85.67;;
24857;SDS011;12935;50.782;6.074;2022-10-26T07:47:51;96.43;;;86.17;;
24857;SDS011;12935;50.782;6.074;2022-10-26T07:50:16;105.50;;;88.40;;
24857;SDS011;12935;50.782;6.074;2022-10-26T07:52:41;129.47;;;91.70;;
24857;SDS011;12935;50.782;6.074;2022-10-26T07:55:10;154.77;;;91.07;;
24857;SDS011;12935;50.782;6.074;2022-10-26T07:57:36;105.03;;;86.07;;
24857;SDS011;12935;50.782;6.074;2022-10-26T08:00:03;104.43;;;89.00;;
24857;SDS011;12935;50.782;6.074;2022-10-26T08:02:29;107.53;;;90.43;;
24857;SDS011;12935;50.782;6.074;2022-10-26T08:04:55;120.33;;;95.63;;
24857;SDS011;12935;50.782;6.074;2022-10-26T08:07:20;105.70;;;88.73;;
24857;SDS011;12935;50.782;6.074;2022-10-26T08:09:45;108.20;;;89.37;;
24857;SDS011;12935;50.782;6.074;2022-10-26T08:12:11;129.73;;;96.77;;
24857;SDS011;12935;50.782;6.074;2022-10-26T08:14:40;102.77;;;88.40;;
24857;SDS011;12935;50.782;6.074;2022-10-26T08:17:05;115.60;;;90.67;;
24857;SDS011;12935;50.782;6.074;2022-10-26T08:19:31;104.93;;;90.93;;
24857;SDS011;12935;50.782;6.074;2022-10-26T08:21:56;112.00;;;92.57;;
24857;SDS011;12935;50.782;6.074;2022-10-26T08:24:21;108.07;;;89.53;;
24857;SDS011;12935;50.782;6.074;2022-10-26T08:26:46;118.03;;;91.30;;
24857;SDS011;12935;50.782;6.074;2022-10-26T08:29:12;100.03;;;87.70;;
24857;SDS011;12935;50.782;6.074;2022-10-26T08:31:37;117.53;;;92.67;;
24857;SDS011;12935;50.782;6.074;2022-10-26T08:34:02;111.77;;;88.63;;
24857;SDS011;12935;50.782;6.074;2022-10-26T08:36:28;99.13;;;86.50;;
24857;SDS011;12935;50.782;6.074;2022-10-26T08:38:53;112.60;;;91.27;;
24857;SDS011;12935;50.782;6.074;2022-10-26T08:41:19;113.37;;;95.90;;
24857;SDS011;12935;50.782;6.074;2022-10-26T08:43:55;119.30;;;93.90;;
24857;SDS011;12935;50.782;6.074;2022-10-26T08:46:28;106.17;;;89.03;;
24857;SDS011;12935;50.782;6.074;2022-10-26T08:49:16;120.13;;;92.00;;
24857;SDS011;12935;50.782;6.074;2022-10-26T08:52:06;114.83;;;91.07;;
24857;SDS011;12935;50.782;6.074;2022-10-26T08:54:40;105.13;;;89.83;;
24857;SDS011;12935;50.782;6.074;2022-10-26T08:57:32;106.77;;;90.50;;
24857;SDS011;12935;50.782;6.074;2022-10-26T09:00:00;113.70;;;89.73;;
24857;SDS011;12935;50.782;6.074;2022-10-26T09:02:29;106.47;;;85.23;;
24857;SDS011;12935;50.782;6.074;2022-10-26T09:04:56;120.83;;;92.10;;
24857;SDS011;12935;50.782;6.074;2022-10-26T09:10:31;125.83;;;96.17;;
24857;SDS011;12935;50.782;6.074;2022-10-26T09:16:31;96.20;;;84.33;;
24857;SDS011;12935;50.782;6.074;2022-10-26T09:22:19;142.63;;;102.30;;
24857;SDS011;12935;50.782;6.074;2022-10-26T09:25:20;103.20;;;90.13;;
24857;SDS011;12935;50.782;6.074;2022-10-26T09:27:48;127.50;;;97.37;;
24857;SDS011;12935;50.782;6.074;2022-10-26T09:30:19;104.80;;;91.00;;
24857;SDS011;12935;50.782;6.074;2022-10-26T09:32:46;104.33;;;91.67;;
24857;SDS011;12935;50.782;6.074;2022-10-26T09:35:24;113.33;;;93.93;;
24857;SDS011;12935;50.782;6.074;2022-10-26T09:38:07;107.47;;;91.70;;
24857;SDS011;12935;50.782;6.074;2022-10-26T09:40:41;104.53;;;91.03;;
24857;SDS011;12935;50.782;6.074;2022-10-26T09:45:57;121.77;;;95.10;;
24857;SDS011;12935;50.782;6.074;2022-10-26T09:51:03;166.77;;;93.30;;
24857;SDS011;12935;50.782;6.074;2022-10-26T09:53:29;133.10;;;100.23;;
24857;SDS011;12935;50.782;6.074;2022-10-26T09:55:59;103.80;;;91.40;;
24857;SDS011;12935;50.782;6.074;2022-10-26T09:58:30;119.43;;;95.00;;
24857;SDS011;12935;50.782;6.074;2022-10-26T10:01:32;113.17;;;93.47;;
24857;SDS011;12935;50.782;6.074;2022-10-26T10:04:07;135.70;;;101.90;;
24857;SDS011;12935;50.782;6.074;2022-10-26T10:06:47;115.77;;;94.97;;
24857;SDS011;12935;50.782;6.074;2022-10-26T10:09:18;110.63;;;89.27;;
24857;SDS011;12935;50.782;6.074;2022-10-26T10:14:30;113.80;;;89.23;;
24857;SDS011;12935;50.782;6.074;2022-10-26T10:17:01;107.27;;;87.57;;
24857;SDS011;12935;50.782;6.074;2022-10-26T10:19:32;113.87;;;87.87;;
24857;SDS011;12935;50.782;6.074;2022-10-26T10:21:59;122.77;;;91.13;;
24857;SDS011;12935;50.782;6.074;2022-10-26T10:24:34;114.50;;;90.53;;
24857;SDS011;12935;50.782;6.074;2022-10-26T10:27:02;120.37;;;89.60;;
24857;SDS011;12935;50.782;6.074;2022-10-26T10:29:29;108.67;;;89.97;;
24857;SDS011;12935;50.782;6.074;2022-10-26T10:31:57;119.87;;;92.50;;
24857;SDS011;12935;50.782;6.074;2022-10-26T10:34:24;105.37;;;86.03;;
24857;SDS011;12935;50.782;6.074;2022-10-26T10:36:49;96.13;;;86.00;;
24857;SDS011;12935;50.782;6.074;2022-10-26T10:39:23;121.83;;;93.20;;
24857;SDS011;12935;50.782;6.074;2022-10-26T10:41:57;107.50;;;86.40;;
24857;SDS011;12935;50.782;6.074;2022-10-26T10:44:23;112.40;;;85.80;;
24857;SDS011;12935;50.782;6.074;2022-10-26T10:47:04;109.77;;;85.50;;
24857;SDS011;12935;50.782;6.074;2022-10-26T10:49:31;112.97;;;87.87;;
24857;SDS011;12935;50.782;6.074;2022-10-26T10:51:57;102.23;;;85.50;;
24857;SDS011;12935;50.782;6.074;2022-10-26T10:54:26;101.47;;;86.10;;
24857;SDS011;12935;50.782;6.074;2022-10-26T10:57:18;102.17;;;86.37;;
24857;SDS011;12935;50.782;6.074;2022-10-26T11:02:36;147.63;;;99.43;;
24857;SDS011;12935;50.782;6.074;2022-10-26T11:05:18;112.90;;;86.20;;
24857;SDS011;12935;50.782;6.074;2022-10-26T11:08:31;108.33;;;84.80;;
24857;SDS011;12935;50.782;6.074;2022-10-26T11:10:46;105.10;;;83.40;;
24857;SDS011;12935;50.782;6.074;2022-10-26T11:13:20;119.77;;;89.43;;
24857;SDS011;12935;50.782;6.074;2022-10-26T11:15:53;105.70;;;82.37;;
24857;SDS011;12935;50.782;6.074;2022-10-26T11:18:27;114.30;;;88.90;;
24857;SDS011;12935;50.782;6.074;2022-10-26T11:21:02;105.70;;;87.43;;
24857;SDS011;12935;50.782;6.074;2022-10-26T11:23:37;101.97;;;83.60;;
24857;SDS011;12935;50.782;6.074;2022-10-26T11:26:12;104.83;;;82.67;;
24857;SDS011;12935;50.782;6.074;2022-10-26T11:31:17;102.37;;;82.27;;
24857;SDS011;12935;50.782;6.074;2022-10-26T11:34:33;103.67;;;83.23;;
24857;SDS011;12935;50.782;6.074;2022-10-26T11:36:46;121.77;;;88.20;;
24857;SDS011;12935;50.782;6.074;2022-10-26T11:42:31;110.63;;;87.83;;
24857;SDS011;12935;50.782;6.074;2022-10-26T11:45:09;122.10;;;89.20;;
24857;SDS011;12935;50.782;6.074;2022-10-26T11:47:43;106.93;;;86.60;;
24857;SDS011;12935;50.782;6.074;2022-10-26T11:53:11;103.40;;;82.07;;
24857;SDS011;12935;50.782;6.074;2022-10-26T11:55:42;111.20;;;84.00;;
24857;SDS011;12935;50.782;6.074;2022-10-26T11:58:13;91.80;;;80.73;;
24857;SDS011;12935;50.782;6.074;2022-10-26T12:00:42;97.47;;;81.40;;
24857;SDS011;12935;50.782;6.074;2022-10-26T12:03:12;102.77;;;80.33;;
24857;SDS011;12935;50.782;6.074;2022-10-26T12:05:43;101.33;;;82.47;;
24857;SDS011;12935;50.782;6.074;2022-10-26T12:08:17;110.80;;;86.97;;
24857;SDS011;12935;50.782;6.074;2022-10-26T12:10:49;96.93;;;82.30;;
24857;SDS011;12935;50.782;6.074;2022-10-26T12:13:34;106.80;;;87.57;;
24857;SDS011;12935;50.782;6.074;2022-10-26T12:16:12;119.80;;;89.00;;
24857;SDS011;12935;50.782;6.074;2022-10-26T12:19:01;120.57;;;87.77;;
24857;SDS011;12935;50.782;6.074;2022-10-26T12:21:31;122.50;;;83.43;;
24857;SDS011;12935;50.782;6.074;2022-10-26T12:23:58;103.93;;;79.90;;
24857;SDS011;12935;50.782;6.074;2022-10-26T12:33:55;86.60;;;73.60;;
24857;SDS011;12935;50.782;6.074;2022-10-26T12:39:28;97.20;;;87.23;;
24857;SDS011;12935;50.782;6.074;2022-10-26T12:44:30;96.53;;;79.43;;
24857;SDS011;12935;50.782;6.074;2022-10-26T12:47:10;105.67;;;83.03;;
24857;SDS011;12935;50.782;6.074;2022-10-26T12:50:01;79.00;;;70.97;;
24857;SDS011;12935;50.782;6.074;2022-10-26T12:52:47;85.80;;;75.37;;
24857;SDS011;12935;50.782;6.074;2022-10-26T12:55:49;93.20;;;78.50;;
24857;SDS011;12935;50.782;6.074;2022-10-26T13:02:02;89.97;;;79.50;;
24857;SDS011;12935;50.782;6.074;2022-10-26T13:07:48;83.97;;;75.03;;
24857;SDS011;12935;50.782;6.074;2022-10-26T13:10:21;96.10;;;81.40;;
24857;SDS011;12935;50.782;6.074;2022-10-26T13:12:53;88.17;;;76.00;;
24857;SDS011;12935;50.782;6.074;2022-10-26T13:15:22;80.87;;;72.27;;
24857;SDS011;12935;50.782;6.074;2022-10-26T13:20:18;86.40;;;75.67;;
24857;SDS011;12935;50.782;6.074;2022-10-26T13:22:44;86.27;;;75.60;;
24857;SDS011;12935;50.782;6.074;2022-10-26T13:25:17;86.97;;;76.87;;
24857;SDS011;12935;50.782;6.074;2022-10-26T13:27:59;96.53;;;88.30;;
24857;SDS011;12935;50.782;6.074;2022-10-26T13:32:58;88.57;;;75.60;;
24857;SDS011;12935;50.782;6.074;2022-10-26T13:35:25;93.87;;;77.77;;
24857;SDS011;12935;50.782;6.074;2022-10-26T13:37:52;88.90;;;79.27;;
24857;SDS011;12935;50.782;6.074;2022-10-26T13:40:20;102.60;;;85.40;;
24857;SDS011;12935;50.782;6.074;2022-10-26T13:42:49;105.10;;;82.33;;
24857;SDS011;12935;50.782;6.074;2022-10-26T13:45:19;93.70;;;83.87;;
24857;SDS011;12935;50.782;6.074;2022-10-26T13:48:00;116.30;;;84.13;;
24857;SDS011;12935;50.782;6.074;2022-10-26T13:50:32;98.20;;;86.87;;
24857;SDS011;12935;50.782;6.074;2022-10-26T13:53:15;103.00;;;87.47;;
24857;SDS011;12935;50.782;6.074;2022-10-26T13:56:07;101.53;;;84.40;;
24857;SDS011;12935;50.782;6.074;2022-10-26T13:58:55;111.40;;;83.33;;
24857;SDS011;12935;50.782;6.074;2022-10-26T14:01:27;93.20;;;80.47;;
24857;SDS011;12935;50.782;6.074;2022-10-26T14:03:54;108.33;;;83.97;;
24857;SDS011;12935;50.782;6.074;2022-10-26T14:06:27;104.27;;;83.97;;
24857;SDS011;12935;50.782;6.074;2022-10-26T14:08:58;130.30;;;93.93;;
24857;SDS011;12935;50.782;6.074;2022-10-26T14:11:28;108.63;;;83.80;;
24857;SDS011;12935;50.782;6.074;2022-10-26T14:13:58;131.83;;;93.60;;
24857;SDS011;12935;50.782;6.074;2022-10-26T14:16:26;105.00;;;87.47;;
24857;SDS011;12935;50.782;6.074;2022-10-26T14:18:54;114.17;;;88.03;;
24857;SDS011;12935;50.782;6.074;2022-10-26T14:21:20;126.17;;;88.50;;
24857;SDS011;12935;50.782;6.074;2022-10-26T14:23:52;111.17;;;89.57;;
24857;SDS011;12935;50.782;6.074;2022-10-26T14:28:53;130.63;;;94.30;;
24857;SDS011;12935;50.782;6.074;2022-10-26T14:31:22;121.83;;;89.10;;
24857;SDS011;12935;50.782;6.074;2022-10-26T14:33:47;120.73;;;90.97;;
24857;SDS011;12935;50.782;6.074;2022-10-26T14:36:13;108.97;;;88.77;;
24857;SDS011;12935;50.782;6.074;2022-10-26T14:38:46;103.07;;;86.80;;
24857;SDS011;12935;50.782;6.074;2022-10-26T14:41:16;138.77;;;101.90;;
24857;SDS011;12935;50.782;6.074;2022-10-26T14:43:42;117.57;;;90.20;;
24857;SDS011;12935;50.782;6.074;2022-10-26T14:46:13;110.07;;;88.07;;
24857;SDS011;12935;50.782;6.074;2022-10-26T14:48:40;114.83;;;92.17;;
24857;SDS011;12935;50.782;6.074;2022-10-26T14:51:16;113.47;;;88.47;;
24857;SDS011;12935;50.782;6.074;2022-10-26T14:53:52;116.60;;;92.47;;
24857;SDS011;12935;50.782;6.074;2022-10-26T14:59:08;114.87;;;91.17;;
24857;SDS011;12935;50.782;6.074;2022-10-26T15:01:46;105.53;;;94.23;;
24857;SDS011;12935;50.782;6.074;2022-10-26T15:04:21;107.57;;;88.90;;
24857;SDS011;12935;50.782;6.074;2022-10-26T15:06:52;105.07;;;88.80;;
24857;SDS011;12935;50.782;6.074;2022-10-26T15:09:30;109.13;;;91.43;;
24857;SDS011;12935;50.782;6.074;2022-10-26T15:12:01;123.67;;;94.20;;
24857;SDS011;12935;50.782;6.074;2022-10-26T15:14:28;117.87;;;95.87;;
24857;SDS011;12935;50.782;6.074;2022-10-26T15:16:55;117.67;;;93.80;;
24857;SDS011;12935;50.782;6.074;2022-10-26T15:19:21;111.60;;;90.90;;
24857;SDS011;12935;50.782;6.074;2022-10-26T15:21:48;96.20;;;81.60;;
24857;SDS011;12935;50.782;6.074;2022-10-26T15:24:24;110.67;;;81.40;;
24857;SDS011;12935;50.782;6.074;2022-10-26T15:26:53;97.53;;;77.83;;
24857;SDS011;12935;50.782;6.074;2022-10-26T15:29:35;100.90;;;82.57;;
24857;SDS011;12935;50.782;6.074;2022-10-26T15:32:02;104.10;;;84.13;;
24857;SDS011;12935;50.782;6.074;2022-10-26T15:34:29;103.43;;;84.13;;
24857;SDS011;12935;50.782;6.074;2022-10-26T15:36:54;99.17;;;79.90;;
24857;SDS011;12935;50.782;6.074;2022-10-26T15:39:20;99.20;;;82.53;;
24857;SDS011;12935;50.782;6.074;2022-10-26T15:41:46;104.03;;;82.70;;
24857;SDS011;12935;50.782;6.074;2022-10-26T15:44:13;104.93;;;82.70;;
24857;SDS011;12935;50.782;6.074;2022-10-26T15:46:42;109.57;;;85.17;;
24857;SDS011;12935;50.782;6.074;2022-10-26T15:49:13;110.27;;;85.57;;
24857;SDS011;12935;50.782;6.074;2022-10-26T15:51:40;115.20;;;84.87;;
24857;SDS011;12935;50.782;6.074;2022-10-26T15:54:09;150.87;;;96.73;;
24857;SDS011;12935;50.782;6.074;2022-10-26T15:56:34;98.97;;;80.77;;
24857;SDS011;12935;50.782;6.074;2022-10-26T15:59:00;112.70;;;87.30;;
24857;SDS011;12935;50.782;6.074;2022-10-26T16:01:26;104.73;;;83.97;;
24857;SDS011;12935;50.782;6.074;2022-10-26T16:03:53;111.67;;;85.23;;
24857;SDS011;12935;50.782;6.074;2022-10-26T16:06:25;111.80;;;87.97;;
24857;SDS011;12935;50.782;6.074;2022-10-26T16:08:53;117.90;;;87.67;;